• Join FlightAware (Why Join?)
  • Login
  • US Flag 
02:23PM EDT


 

Airport Tracker/Info


-or-


 

Live Flight TrackerFlight Track Log ✈ SWA4635 ✈ 14-Jul-2014 ✈ KOAK - KSLC

Flight Track Log - Related Links

Times and Time Zones

All times are in EDT time to prevent confusion due to time zone crossing. See the SWA4635 flight status page for this flight to view local times or setup timezone preferences in your user account.

Time Position Orientation Groundspeed Altitude Reporting Facility
EDT Latitude Longitude Course Direction KTS MPH feet Rate Location/Type
01:38AM 37.7833 -122.3500 314° West 233 268 4,700  Level Northern Cal TRACON
01:41AM 37.9078 -122.2919 20° North 297 342 11,100 2,940 Climbing Oakland Center
01:42AM 37.9714 -122.2061 47° Northeast 338 389 13,900 2,820 Climbing Oakland Center
01:43AM 38.1832 -121.9613 46° Northeast  Level FlightAware Approximate
01:43AM 38.0394 -122.1108 48° Northeast 363 418 16,900  Level Oakland Center
01:44AM 38.1136 -122.0097 47° Northeast 390 449 19,500 2,580 Climbing Oakland Center
01:45AM 38.1906 -121.9036 47° Northeast 405 466 22,200 2,460 Climbing Oakland Center
01:46AM 38.2700 -121.7936 47° Northeast 421 484 24,500 2,160 Climbing Oakland Center
01:47AM 38.3542 -121.6767 47° Northeast 445 512 26,700 2,100 Climbing Oakland Center
01:48AM 38.4381 -121.5592 48° Northeast 455 524 28,800 2,040 Climbing Oakland Center
01:49AM 38.5183 -121.4261 52° Northeast 461 531 30,900 1,560 Climbing Oakland Center
01:50AM 38.5947 -121.2914 54° Northeast 465 535 32,000 540 Climbing Oakland Center
01:51AM 38.6806 -121.1461 53° Northeast 475 547 32,000  Level Oakland Center
01:52AM 38.7572 -121.0122 54° Northeast 469 540 32,000  Level Oakland Center
01:53AM 38.8353 -120.8764 54° Northeast 471 542 32,000 900 Level Oakland Center
01:54AM 38.9136 -120.7406 53° Northeast 471 542 33,900 1,860 Climbing Oakland Center
01:55AM 38.9917 -120.6069 53° Northeast 471 542 35,800 1,740 Climbing Oakland Center
01:56AM 39.0692 -120.4728 53° Northeast 468 539 37,500 1,740 Climbing Oakland Center
01:57AM 39.1608 -120.3092 54° Northeast 469 540 39,400 1,680 Climbing Oakland Center
01:58AM 39.2364 -120.1742 54° Northeast 467 537 40,900 780 Climbing Oakland Center
01:59AM 39.2989 -120.0597 55° Northeast 464 534 41,000  Climbing Oakland Center
02:00AM 39.3361 -119.9061 73° East 453 521 41,000  Level Oakland Center
02:01AM 39.3719 -119.7522 73° East 449 517 41,000  Level Oakland Center
02:02AM 39.4150 -119.5667 73° East 449 517 41,000  Level Oakland Center
02:03AM 39.4494 -119.4128 74° East 448 516 41,000  Level Oakland Center
02:04AM 39.4842 -119.2575 74° East 451 519 41,000  Level Oakland Center
02:05AM 39.5203 -119.1003 73° East 452 520 41,000  Level Oakland Center
02:06AM 39.5553 -118.9428 74° East 452 520 41,000  Level Oakland Center
02:07AM 39.5922 -118.7819 73° East 454 522 41,000  Level Oakland Center
02:08AM 39.6281 -118.6192 74° East 460 529 41,000  Level Oakland Center
02:09AM 39.6611 -118.4597 75° East 458 527 41,000  Level Oakland Center
02:10AM 39.6956 -118.3019 74° East 456 525 41,000  Level Oakland Center
02:11AM 39.7289 -118.1431 75° East 456 525 41,000  Level Oakland Center
02:12AM 39.7631 -117.9853 74° East 455 524 41,000  Level Oakland Center
02:13AM 39.7950 -117.8283 75° East 454 522 41,000  Level Oakland Center
02:14AM 39.8264 -117.6800 75° East 454 522 41,000  Level Oakland Center
02:15AM 39.8575 -117.5283 75° East 454 522 41,000  Level Oakland Center
02:16AM 39.8939 -117.3536 75° East 453 521 41,000  Level Oakland Center
02:17AM 39.9144 -117.2514 75° East 453 521 41,000  Level Salt Lake Center
02:18AM 39.9511 -117.0731 75° East 454 522 41,000  Level Salt Lake Center
02:19AM 39.9814 -116.9208 75° East 455 524 41,000  Level Salt Lake Center
02:20AM 40.0164 -116.7433 76° East 455 524 41,000  Level Salt Lake Center
02:21AM 40.0475 -116.5914 75° East 455 524 41,000  Level Salt Lake Center
02:22AM 40.0778 -116.4392 75° East 456 525 41,000  Level Salt Lake Center
02:23AM 40.1128 -116.2603 76° East 456 525 41,000  Level Salt Lake Center
02:24AM 40.1425 -116.1061 76° East 457 526 41,000  Level Salt Lake Center
02:25AM 40.1725 -115.9533 76° East 457 526 41,000  Level Salt Lake Center
02:26AM 40.2067 -115.7744 76° East 457 526 41,000  Level Salt Lake Center
02:27AM 40.2369 -115.6214 75° East 456 525 41,000  Level Salt Lake Center
02:28AM 40.2656 -115.4669 76° East 456 525 41,000  Level Salt Lake Center
02:29AM 40.2997 -115.2856 76° East 458 527 41,000  Level Salt Lake Center
02:30AM 40.3300 -115.1275 76° East 462 532 41,000  Level Salt Lake Center
02:31AM 40.3581 -114.9697 77° East 463 533 41,000  Level Salt Lake Center
02:32AM 40.3906 -114.7858 77° East 465 535 41,000  Level Salt Lake Center
02:33AM 40.4186 -114.6278 77° East 465 535 41,000  Level Salt Lake Center
02:34AM 40.4489 -114.4639 76° East 465 535 41,000  Level Salt Lake Center
02:35AM 40.4778 -114.2961 77° East 466 536 41,000 -900 Level Salt Lake Center
02:36AM 40.5075 -114.1306 77° East 467 537 39,200 -2,340 Descending Salt Lake Center
02:37AM 40.5361 -113.9622 77° East 470 541 36,400 -3,180 Descending Salt Lake Center
02:38AM 40.5661 -113.7919 77° East 477 549 32,800 -3,660 Descending Salt Lake Center
02:39AM 40.5967 -113.6158 77° East 489 563 29,000 -3,480 Descending Salt Lake Center
02:40AM 40.6247 -113.4436 78° East 487 560 25,800 -3,120 Descending Salt Lake Center
02:41AM 40.6533 -113.2775 77° East 471 542 22,800 -2,940 Descending Salt Lake Center
02:42AM 40.6783 -113.1217 78° East 440 506 19,900 -3,000 Descending Salt Lake Center
02:43AM 40.7056 -113.0108 72° East 411 473 17,800 -2,340 Descending Salt Lake Center
02:43AM 40.7036 -112.9750 94° East 412 474 17,600 -1,020 Descending Salt Lake Center
02:43AM 40.7242 -112.8919 72° East 388 447 17,000 -600 Descending Salt Lake Center
02:44AM 40.7231 -112.8381 92° East 383 441 17,000  Level Salt Lake Center
02:44AM 40.7283 -112.7550 85° East 374 430 17,000 -240 Level Salt Lake Center
02:45AM 40.7206 -112.6736 97° East 374 430 16,800 -720 Descending Salt Lake Center
02:45AM 40.7258 -112.6175 83° East 373 429 16,300 -1,200 Descending Salt Lake Center
02:46AM 40.7197 -112.5372 96° East 374 430 15,600 -1,380 Descending Salt Lake Center
02:46AM 40.7297 -112.4919 74° East 376 433 15,100 -1,800 Descending Salt Lake Center
02:47AM 40.7406 -112.4028 81° East 374 430 13,800 -1,980 Descending Salt Lake Center
02:47AM 40.7497 -112.3608 74° East 369 425 13,100 -1,920 Descending Salt Lake Center
02:48AM 40.7617 -112.2744 80° East 364 419 11,900 -1,440 Descending Salt Lake Center
02:48AM 40.7669 -112.2164 83° East 338 389 11,500 -900 Descending Salt Lake Center
02:49AM 40.7639 -112.1567 94° East 320 368 11,000 -1,140 Descending Salt Lake Center
02:49AM 40.7436 -112.1197 126° Southeast 301 346 10,500 -600 Descending Salt Lake Center
02:50AM 40.7056 -112.0872 147° Southeast 279 321 10,400 -300 Descending Salt Lake Center
02:50AM 40.6792 -112.0875 180° South 237 273 10,200 -1,020 Descending Salt Lake Center
02:51AM 40.6458 -112.0628 151° Southeast 234 269 9,400 -1,200 Descending Salt Lake Center
02:51AM 40.6375 -112.0394 115° Southeast 192 221 9,000 -840 Descending Salt Lake Center
02:52AM 40.6519 -112.0031 62° Northeast 185 213 8,600 -1,200 Descending Salt Lake Center
02:52AM 40.6583 -111.9817 69° East 162 186 7,800 -1,680 Descending Salt Lake Center
02:53AM 40.6767 -111.9583 44° Northeast 167 192 6,900 -1,680 Descending Salt Lake Center
02:53AM 40.6942 -111.9667 340° North 151 174 6,100 -1,620 Descending Salt Lake Center
02:54AM 40.7178 -111.9669 359° North 154 177 5,300 -1,140 Descending Salt Lake Center
02:54AM 40.7336 -111.9703 351° North 145 167 5,000 -840 Descending Salt Lake Center
02:55AM 40.7581 -111.9708 359° North 150 173 4,500 -780 Descending Salt Lake Center
02:57AM 40.7833 -111.9667 159° South  Level FlightAware Approximate
03:04AM 40.7884 -111.9778 159° South  Level Estimated